sensor_id;sensor_type;location;lat;lon;timestamp;P1;durP1;ratioP1;P2;durP2;ratioP2
20880;SDS011;10600;53.096;8.802;2023-05-07T00:00:36;25.55;;;18.05;;
20880;SDS011;10600;53.096;8.802;2023-05-07T00:01:37;31.85;;;19.48;;
20880;SDS011;10600;53.096;8.802;2023-05-07T00:02:37;30.23;;;18.48;;
20880;SDS011;10600;53.096;8.802;2023-05-07T00:03:38;27.85;;;18.65;;
20880;SDS011;10600;53.096;8.802;2023-05-07T00:04:42;25.17;;;18.10;;
20880;SDS011;10600;53.096;8.802;2023-05-07T00:05:42;27.25;;;18.98;;
20880;SDS011;10600;53.096;8.802;2023-05-07T00:06:43;26.42;;;18.15;;
20880;SDS011;10600;53.096;8.802;2023-05-07T00:07:43;28.77;;;17.60;;
20880;SDS011;10600;53.096;8.802;2023-05-07T00:08:44;26.33;;;18.50;;
20880;SDS011;10600;53.096;8.802;2023-05-07T00:09:44;25.95;;;17.83;;
20880;SDS011;10600;53.096;8.802;2023-05-07T00:10:45;27.60;;;17.67;;
20880;SDS011;10600;53.096;8.802;2023-05-07T00:11:46;27.27;;;18.17;;
20880;SDS011;10600;53.096;8.802;2023-05-07T00:12:47;27.58;;;18.77;;
20880;SDS011;10600;53.096;8.802;2023-05-07T00:13:47;24.73;;;17.50;;
20880;SDS011;10600;53.096;8.802;2023-05-07T00:14:48;25.63;;;18.55;;
20880;SDS011;10600;53.096;8.802;2023-05-07T00:15:49;26.48;;;19.35;;
20880;SDS011;10600;53.096;8.802;2023-05-07T00:16:50;25.85;;;17.15;;
20880;SDS011;10600;53.096;8.802;2023-05-07T00:17:50;31.73;;;18.90;;
20880;SDS011;10600;53.096;8.802;2023-05-07T00:18:51;30.00;;;19.25;;
20880;SDS011;10600;53.096;8.802;2023-05-07T00:19:52;24.42;;;18.15;;
20880;SDS011;10600;53.096;8.802;2023-05-07T00:20:53;29.90;;;20.02;;
20880;SDS011;10600;53.096;8.802;2023-05-07T00:21:53;28.98;;;19.42;;
20880;SDS011;10600;53.096;8.802;2023-05-07T00:22:55;25.48;;;18.08;;
20880;SDS011;10600;53.096;8.802;2023-05-07T00:23:56;28.17;;;19.33;;
20880;SDS011;10600;53.096;8.802;2023-05-07T00:24:57;27.80;;;18.42;;
20880;SDS011;10600;53.096;8.802;2023-05-07T00:25:57;27.40;;;19.00;;
20880;SDS011;10600;53.096;8.802;2023-05-07T00:26:58;28.08;;;19.55;;
20880;SDS011;10600;53.096;8.802;2023-05-07T00:27:59;27.13;;;18.67;;
20880;SDS011;10600;53.096;8.802;2023-05-07T00:29:03;30.40;;;19.17;;
20880;SDS011;10600;53.096;8.802;2023-05-07T00:30:04;27.75;;;19.23;;
20880;SDS011;10600;53.096;8.802;2023-05-07T00:31:06;26.58;;;19.02;;
20880;SDS011;10600;53.096;8.802;2023-05-07T00:32:06;28.55;;;19.38;;
20880;SDS011;10600;53.096;8.802;2023-05-07T00:33:08;26.55;;;18.65;;
20880;SDS011;10600;53.096;8.802;2023-05-07T00:34:09;31.23;;;19.42;;
20880;SDS011;10600;53.096;8.802;2023-05-07T00:35:09;27.75;;;19.33;;
20880;SDS011;10600;53.096;8.802;2023-05-07T00:36:10;27.17;;;18.45;;
20880;SDS011;10600;53.096;8.802;2023-05-07T00:37:10;26.42;;;18.70;;
20880;SDS011;10600;53.096;8.802;2023-05-07T00:38:12;29.30;;;20.23;;
20880;SDS011;10600;53.096;8.802;2023-05-07T00:39:12;26.25;;;18.75;;
20880;SDS011;10600;53.096;8.802;2023-05-07T00:40:13;28.48;;;20.02;;
20880;SDS011;10600;53.096;8.802;2023-05-07T00:41:14;28.33;;;19.25;;
20880;SDS011;10600;53.096;8.802;2023-05-07T00:42:15;27.50;;;18.65;;
20880;SDS011;10600;53.096;8.802;2023-05-07T00:43:16;26.98;;;18.75;;
20880;SDS011;10600;53.096;8.802;2023-05-07T00:44:17;28.60;;;19.17;;
20880;SDS011;10600;53.096;8.802;2023-05-07T00:45:18;29.58;;;19.50;;
20880;SDS011;10600;53.096;8.802;2023-05-07T00:46:20;27.55;;;19.20;;
20880;SDS011;10600;53.096;8.802;2023-05-07T00:47:21;28.40;;;19.40;;
20880;SDS011;10600;53.096;8.802;2023-05-07T00:48:21;30.52;;;19.73;;
20880;SDS011;10600;53.096;8.802;2023-05-07T00:49:25;26.98;;;18.80;;
20880;SDS011;10600;53.096;8.802;2023-05-07T00:50:39;27.70;;;18.67;;
20880;SDS011;10600;53.096;8.802;2023-05-07T00:51:39;26.52;;;18.40;;
20880;SDS011;10600;53.096;8.802;2023-05-07T00:52:40;25.92;;;18.88;;
20880;SDS011;10600;53.096;8.802;2023-05-07T00:53:42;27.45;;;19.90;;
20880;SDS011;10600;53.096;8.802;2023-05-07T00:54:43;29.45;;;19.50;;
20880;SDS011;10600;53.096;8.802;2023-05-07T00:55:44;28.30;;;19.50;;
20880;SDS011;10600;53.096;8.802;2023-05-07T00:56:45;27.02;;;18.05;;
20880;SDS011;10600;53.096;8.802;2023-05-07T00:57:45;27.88;;;18.67;;
20880;SDS011;10600;53.096;8.802;2023-05-07T00:58:46;26.15;;;18.33;;
20880;SDS011;10600;53.096;8.802;2023-05-07T00:59:48;26.33;;;17.88;;
20880;SDS011;10600;53.096;8.802;2023-05-07T01:00:48;26.80;;;18.38;;
20880;SDS011;10600;53.096;8.802;2023-05-07T01:01:50;27.02;;;18.67;;
20880;SDS011;10600;53.096;8.802;2023-05-07T01:02:52;24.95;;;17.13;;
20880;SDS011;10600;53.096;8.802;2023-05-07T01:03:53;26.98;;;19.52;;
20880;SDS011;10600;53.096;8.802;2023-05-07T01:04:53;25.95;;;18.25;;
20880;SDS011;10600;53.096;8.802;2023-05-07T01:05:55;26.27;;;18.48;;
20880;SDS011;10600;53.096;8.802;2023-05-07T01:06:59;27.33;;;19.02;;
20880;SDS011;10600;53.096;8.802;2023-05-07T01:08:01;31.27;;;18.73;;
20880;SDS011;10600;53.096;8.802;2023-05-07T01:09:03;26.27;;;18.58;;
20880;SDS011;10600;53.096;8.802;2023-05-07T01:10:05;26.77;;;19.88;;
20880;SDS011;10600;53.096;8.802;2023-05-07T01:11:07;26.23;;;18.15;;
20880;SDS011;10600;53.096;8.802;2023-05-07T01:12:08;29.85;;;20.15;;
20880;SDS011;10600;53.096;8.802;2023-05-07T01:13:10;28.77;;;19.15;;
20880;SDS011;10600;53.096;8.802;2023-05-07T01:14:12;27.15;;;19.42;;
20880;SDS011;10600;53.096;8.802;2023-05-07T01:15:13;27.50;;;19.50;;
20880;SDS011;10600;53.096;8.802;2023-05-07T01:16:14;26.58;;;18.98;;
20880;SDS011;10600;53.096;8.802;2023-05-07T01:17:15;24.75;;;18.10;;
20880;SDS011;10600;53.096;8.802;2023-05-07T01:18:16;27.83;;;19.10;;
20880;SDS011;10600;53.096;8.802;2023-05-07T01:19:18;26.20;;;18.52;;
20880;SDS011;10600;53.096;8.802;2023-05-07T01:20:19;28.13;;;19.30;;
20880;SDS011;10600;53.096;8.802;2023-05-07T01:21:20;29.75;;;20.02;;
20880;SDS011;10600;53.096;8.802;2023-05-07T01:22:30;27.55;;;18.90;;
20880;SDS011;10600;53.096;8.802;2023-05-07T01:23:32;30.50;;;19.92;;
20880;SDS011;10600;53.096;8.802;2023-05-07T01:24:35;29.27;;;21.13;;
20880;SDS011;10600;53.096;8.802;2023-05-07T01:25:36;29.75;;;20.27;;
20880;SDS011;10600;53.096;8.802;2023-05-07T01:26:38;30.50;;;20.70;;
20880;SDS011;10600;53.096;8.802;2023-05-07T01:27:39;29.17;;;20.83;;
20880;SDS011;10600;53.096;8.802;2023-05-07T01:28:40;26.75;;;19.52;;
20880;SDS011;10600;53.096;8.802;2023-05-07T01:29:41;28.27;;;20.50;;
20880;SDS011;10600;53.096;8.802;2023-05-07T01:30:41;27.67;;;20.10;;
20880;SDS011;10600;53.096;8.802;2023-05-07T01:31:45;27.70;;;19.65;;
20880;SDS011;10600;53.096;8.802;2023-05-07T01:33:50;30.25;;;19.17;;
20880;SDS011;10600;53.096;8.802;2023-05-07T01:34:53;26.23;;;19.08;;
20880;SDS011;10600;53.096;8.802;2023-05-07T01:35:55;26.35;;;17.77;;
20880;SDS011;10600;53.096;8.802;2023-05-07T01:36:56;30.10;;;19.75;;
20880;SDS011;10600;53.096;8.802;2023-05-07T01:37:58;30.65;;;20.77;;
20880;SDS011;10600;53.096;8.802;2023-05-07T01:39:00;27.40;;;18.73;;
20880;SDS011;10600;53.096;8.802;2023-05-07T01:40:02;26.02;;;18.83;;
20880;SDS011;10600;53.096;8.802;2023-05-07T01:41:03;26.65;;;19.25;;
20880;SDS011;10600;53.096;8.802;2023-05-07T01:42:05;26.98;;;18.45;;
20880;SDS011;10600;53.096;8.802;2023-05-07T01:43:05;29.30;;;19.13;;
20880;SDS011;10600;53.096;8.802;2023-05-07T01:44:07;29.95;;;19.05;;
20880;SDS011;10600;53.096;8.802;2023-05-07T01:45:08;27.25;;;18.13;;
20880;SDS011;10600;53.096;8.802;2023-05-07T01:46:09;27.95;;;19.30;;
20880;SDS011;10600;53.096;8.802;2023-05-07T01:47:12;29.17;;;19.27;;
20880;SDS011;10600;53.096;8.802;2023-05-07T01:48:16;31.10;;;20.45;;
20880;SDS011;10600;53.096;8.802;2023-05-07T01:49:18;29.83;;;19.60;;
20880;SDS011;10600;53.096;8.802;2023-05-07T01:50:19;27.67;;;19.38;;
20880;SDS011;10600;53.096;8.802;2023-05-07T01:51:21;33.22;;;20.60;;
20880;SDS011;10600;53.096;8.802;2023-05-07T01:52:22;29.95;;;19.00;;
20880;SDS011;10600;53.096;8.802;2023-05-07T01:53:23;27.38;;;19.33;;
20880;SDS011;10600;53.096;8.802;2023-05-07T01:54:26;28.88;;;19.67;;
20880;SDS011;10600;53.096;8.802;2023-05-07T01:55:27;29.95;;;19.45;;
20880;SDS011;10600;53.096;8.802;2023-05-07T01:56:28;28.60;;;19.13;;
20880;SDS011;10600;53.096;8.802;2023-05-07T01:57:29;30.25;;;19.88;;
20880;SDS011;10600;53.096;8.802;2023-05-07T01:58:29;29.58;;;19.55;;
20880;SDS011;10600;53.096;8.802;2023-05-07T01:59:30;27.27;;;18.58;;
20880;SDS011;10600;53.096;8.802;2023-05-07T02:00:31;30.10;;;19.63;;
20880;SDS011;10600;53.096;8.802;2023-05-07T02:01:32;31.75;;;19.67;;
20880;SDS011;10600;53.096;8.802;2023-05-07T02:02:32;29.13;;;19.55;;
20880;SDS011;10600;53.096;8.802;2023-05-07T02:03:33;29.95;;;19.92;;
20880;SDS011;10600;53.096;8.802;2023-05-07T02:04:37;28.70;;;18.88;;
20880;SDS011;10600;53.096;8.802;2023-05-07T02:05:38;26.83;;;19.02;;
20880;SDS011;10600;53.096;8.802;2023-05-07T02:06:38;27.02;;;19.08;;
20880;SDS011;10600;53.096;8.802;2023-05-07T02:07:39;29.38;;;18.50;;
20880;SDS011;10600;53.096;8.802;2023-05-07T02:08:39;27.88;;;18.40;;
20880;SDS011;10600;53.096;8.802;2023-05-07T02:09:40;30.00;;;19.25;;
20880;SDS011;10600;53.096;8.802;2023-05-07T02:10:41;28.63;;;18.98;;
20880;SDS011;10600;53.096;8.802;2023-05-07T02:11:41;26.90;;;17.92;;
20880;SDS011;10600;53.096;8.802;2023-05-07T02:12:42;29.25;;;18.70;;
20880;SDS011;10600;53.096;8.802;2023-05-07T02:13:42;28.38;;;18.10;;
20880;SDS011;10600;53.096;8.802;2023-05-07T02:14:43;33.03;;;17.67;;
20880;SDS011;10600;53.096;8.802;2023-05-07T02:15:44;27.23;;;18.27;;
20880;SDS011;10600;53.096;8.802;2023-05-07T02:16:49;25.48;;;17.35;;
20880;SDS011;10600;53.096;8.802;2023-05-07T02:17:59;28.77;;;18.35;;
20880;SDS011;10600;53.096;8.802;2023-05-07T02:19:03;27.88;;;18.45;;
20880;SDS011;10600;53.096;8.802;2023-05-07T02:20:04;29.08;;;17.95;;
20880;SDS011;10600;53.096;8.802;2023-05-07T02:21:07;26.73;;;16.80;;
20880;SDS011;10600;53.096;8.802;2023-05-07T02:22:07;28.98;;;17.05;;
20880;SDS011;10600;53.096;8.802;2023-05-07T02:23:09;24.58;;;17.00;;
20880;SDS011;10600;53.096;8.802;2023-05-07T02:24:09;26.98;;;17.20;;
20880;SDS011;10600;53.096;8.802;2023-05-07T02:25:10;26.38;;;17.38;;
20880;SDS011;10600;53.096;8.802;2023-05-07T02:26:11;24.15;;;16.40;;
20880;SDS011;10600;53.096;8.802;2023-05-07T02:27:11;25.38;;;16.75;;
20880;SDS011;10600;53.096;8.802;2023-05-07T02:28:12;27.55;;;17.73;;
20880;SDS011;10600;53.096;8.802;2023-05-07T02:29:13;28.08;;;18.63;;
20880;SDS011;10600;53.096;8.802;2023-05-07T02:30:14;27.77;;;18.05;;
20880;SDS011;10600;53.096;8.802;2023-05-07T02:31:14;27.42;;;17.88;;
20880;SDS011;10600;53.096;8.802;2023-05-07T02:32:15;26.48;;;16.60;;
20880;SDS011;10600;53.096;8.802;2023-05-07T02:33:16;28.55;;;18.00;;
20880;SDS011;10600;53.096;8.802;2023-05-07T02:34:16;28.25;;;18.02;;
20880;SDS011;10600;53.096;8.802;2023-05-07T02:35:17;28.67;;;18.23;;
20880;SDS011;10600;53.096;8.802;2023-05-07T02:36:18;26.13;;;16.95;;
20880;SDS011;10600;53.096;8.802;2023-05-07T02:37:18;29.60;;;16.73;;
20880;SDS011;10600;53.096;8.802;2023-05-07T02:38:19;27.50;;;18.27;;
20880;SDS011;10600;53.096;8.802;2023-05-07T02:39:20;27.23;;;17.55;;
20880;SDS011;10600;53.096;8.802;2023-05-07T02:40:20;28.42;;;17.63;;
20880;SDS011;10600;53.096;8.802;2023-05-07T02:41:21;25.50;;;17.38;;
20880;SDS011;10600;53.096;8.802;2023-05-07T02:42:21;29.50;;;17.98;;
20880;SDS011;10600;53.096;8.802;2023-05-07T02:43:22;30.58;;;19.73;;
20880;SDS011;10600;53.096;8.802;2023-05-07T02:44:23;33.70;;;19.27;;
20880;SDS011;10600;53.096;8.802;2023-05-07T02:45:23;28.42;;;18.77;;
20880;SDS011;10600;53.096;8.802;2023-05-07T02:46:24;26.77;;;18.08;;
20880;SDS011;10600;53.096;8.802;2023-05-07T02:47:25;26.98;;;17.73;;
20880;SDS011;10600;53.096;8.802;2023-05-07T02:48:28;29.88;;;18.35;;
20880;SDS011;10600;53.096;8.802;2023-05-07T02:49:29;28.77;;;18.80;;
20880;SDS011;10600;53.096;8.802;2023-05-07T02:50:29;29.42;;;18.40;;
20880;SDS011;10600;53.096;8.802;2023-05-07T02:51:30;31.05;;;18.17;;
20880;SDS011;10600;53.096;8.802;2023-05-07T02:52:31;28.42;;;18.33;;
20880;SDS011;10600;53.096;8.802;2023-05-07T02:53:32;30.13;;;18.88;;
20880;SDS011;10600;53.096;8.802;2023-05-07T02:54:32;29.63;;;18.52;;
20880;SDS011;10600;53.096;8.802;2023-05-07T02:55:33;29.38;;;18.33;;
20880;SDS011;10600;53.096;8.802;2023-05-07T02:56:34;31.58;;;18.95;;
20880;SDS011;10600;53.096;8.802;2023-05-07T02:57:34;30.13;;;19.42;;
20880;SDS011;10600;53.096;8.802;2023-05-07T02:58:35;27.70;;;18.60;;
20880;SDS011;10600;53.096;8.802;2023-05-07T02:59:35;30.67;;;18.25;;
20880;SDS011;10600;53.096;8.802;2023-05-07T03:00:36;31.38;;;19.15;;
20880;SDS011;10600;53.096;8.802;2023-05-07T03:01:37;26.92;;;18.40;;
20880;SDS011;10600;53.096;8.802;2023-05-07T03:02:37;29.08;;;18.70;;
20880;SDS011;10600;53.096;8.802;2023-05-07T03:03:38;31.10;;;19.55;;
20880;SDS011;10600;53.096;8.802;2023-05-07T03:04:39;27.55;;;18.35;;
20880;SDS011;10600;53.096;8.802;2023-05-07T03:05:40;30.55;;;19.58;;
20880;SDS011;10600;53.096;8.802;2023-05-07T03:06:41;27.13;;;17.52;;
20880;SDS011;10600;53.096;8.802;2023-05-07T03:07:41;31.63;;;19.35;;
20880;SDS011;10600;53.096;8.802;2023-05-07T03:08:45;29.25;;;18.25;;
20880;SDS011;10600;53.096;8.802;2023-05-07T03:09:45;30.02;;;18.05;;
20880;SDS011;10600;53.096;8.802;2023-05-07T03:10:46;29.17;;;18.23;;
20880;SDS011;10600;53.096;8.802;2023-05-07T03:11:47;28.77;;;18.00;;
20880;SDS011;10600;53.096;8.802;2023-05-07T03:12:47;27.10;;;17.70;;
20880;SDS011;10600;53.096;8.802;2023-05-07T03:13:48;30.52;;;18.27;;
20880;SDS011;10600;53.096;8.802;2023-05-07T03:14:49;27.27;;;17.98;;
20880;SDS011;10600;53.096;8.802;2023-05-07T03:15:50;27.27;;;17.90;;
20880;SDS011;10600;53.096;8.802;2023-05-07T03:16:50;26.38;;;17.35;;
20880;SDS011;10600;53.096;8.802;2023-05-07T03:17:51;30.85;;;17.60;;
20880;SDS011;10600;53.096;8.802;2023-05-07T03:18:52;29.40;;;18.00;;
20880;SDS011;10600;53.096;8.802;2023-05-07T03:19:52;27.38;;;18.02;;
20880;SDS011;10600;53.096;8.802;2023-05-07T03:20:53;29.77;;;17.67;;
20880;SDS011;10600;53.096;8.802;2023-05-07T03:21:54;28.02;;;18.25;;
20880;SDS011;10600;53.096;8.802;2023-05-07T03:22:55;28.88;;;17.27;;
20880;SDS011;10600;53.096;8.802;2023-05-07T03:23:56;28.65;;;17.88;;
20880;SDS011;10600;53.096;8.802;2023-05-07T03:24:56;27.83;;;17.67;;
20880;SDS011;10600;53.096;8.802;2023-05-07T03:25:57;26.38;;;17.58;;
20880;SDS011;10600;53.096;8.802;2023-05-07T03:26:57;27.73;;;17.95;;
20880;SDS011;10600;53.096;8.802;2023-05-07T03:27:58;25.90;;;18.10;;
20880;SDS011;10600;53.096;8.802;2023-05-07T03:28:59;26.55;;;17.55;;
20880;SDS011;10600;53.096;8.802;2023-05-07T03:30:00;26.88;;;18.05;;
20880;SDS011;10600;53.096;8.802;2023-05-07T03:31:01;29.38;;;18.35;;
20880;SDS011;10600;53.096;8.802;2023-05-07T03:32:02;29.35;;;17.48;;
20880;SDS011;10600;53.096;8.802;2023-05-07T03:33:02;24.95;;;16.55;;
20880;SDS011;10600;53.096;8.802;2023-05-07T03:34:04;29.10;;;18.60;;
20880;SDS011;10600;53.096;8.802;2023-05-07T03:35:04;28.17;;;17.67;;
20880;SDS011;10600;53.096;8.802;2023-05-07T03:36:05;30.27;;;19.38;;
20880;SDS011;10600;53.096;8.802;2023-05-07T03:37:06;28.98;;;17.90;;
20880;SDS011;10600;53.096;8.802;2023-05-07T03:38:07;30.42;;;18.88;;
20880;SDS011;10600;53.096;8.802;2023-05-07T03:39:07;29.75;;;18.45;;
20880;SDS011;10600;53.096;8.802;2023-05-07T03:40:08;31.77;;;19.17;;
20880;SDS011;10600;53.096;8.802;2023-05-07T03:41:10;28.35;;;19.17;;
20880;SDS011;10600;53.096;8.802;2023-05-07T03:42:10;27.33;;;17.75;;
20880;SDS011;10600;53.096;8.802;2023-05-07T03:43:11;28.80;;;18.50;;
20880;SDS011;10600;53.096;8.802;2023-05-07T03:44:12;29.52;;;18.20;;
20880;SDS011;10600;53.096;8.802;2023-05-07T03:45:12;31.55;;;18.77;;
20880;SDS011;10600;53.096;8.802;2023-05-07T03:46:13;30.85;;;18.88;;
20880;SDS011;10600;53.096;8.802;2023-05-07T03:47:13;27.42;;;17.35;;
20880;SDS011;10600;53.096;8.802;2023-05-07T03:48:14;28.88;;;18.58;;
20880;SDS011;10600;53.096;8.802;2023-05-07T03:49:15;29.75;;;17.27;;
20880;SDS011;10600;53.096;8.802;2023-05-07T03:50:15;27.73;;;18.90;;
20880;SDS011;10600;53.096;8.802;2023-05-07T03:51:16;30.98;;;18.58;;
20880;SDS011;10600;53.096;8.802;2023-05-07T03:52:17;28.50;;;18.15;;
20880;SDS011;10600;53.096;8.802;2023-05-07T03:53:22;27.27;;;17.70;;
20880;SDS011;10600;53.096;8.802;2023-05-07T03:54:22;29.27;;;18.33;;
20880;SDS011;10600;53.096;8.802;2023-05-07T03:55:23;25.65;;;17.38;;
20880;SDS011;10600;53.096;8.802;2023-05-07T03:56:24;27.58;;;18.40;;
20880;SDS011;10600;53.096;8.802;2023-05-07T03:57:26;27.55;;;17.88;;
20880;SDS011;10600;53.096;8.802;2023-05-07T03:58:27;31.85;;;18.63;;
20880;SDS011;10600;53.096;8.802;2023-05-07T03:59:28;28.33;;;18.13;;
20880;SDS011;10600;53.096;8.802;2023-05-07T04:00:28;24.50;;;16.65;;
20880;SDS011;10600;53.096;8.802;2023-05-07T04:01:33;26.02;;;17.40;;
20880;SDS011;10600;53.096;8.802;2023-05-07T04:02:34;26.75;;;17.10;;
20880;SDS011;10600;53.096;8.802;2023-05-07T04:03:34;25.67;;;17.52;;
20880;SDS011;10600;53.096;8.802;2023-05-07T04:04:35;22.65;;;15.77;;
20880;SDS011;10600;53.096;8.802;2023-05-07T04:05:35;25.23;;;17.08;;
20880;SDS011;10600;53.096;8.802;2023-05-07T04:06:36;27.33;;;17.35;;
20880;SDS011;10600;53.096;8.802;2023-05-07T04:07:37;27.50;;;17.35;;
20880;SDS011;10600;53.096;8.802;2023-05-07T04:08:38;25.65;;;17.38;;
20880;SDS011;10600;53.096;8.802;2023-05-07T04:09:38;26.02;;;16.75;;
20880;SDS011;10600;53.096;8.802;2023-05-07T04:10:39;27.75;;;16.85;;
20880;SDS011;10600;53.096;8.802;2023-05-07T04:11:39;23.27;;;15.23;;
20880;SDS011;10600;53.096;8.802;2023-05-07T04:12:40;24.88;;;16.05;;
20880;SDS011;10600;53.096;8.802;2023-05-07T04:13:41;25.05;;;16.35;;
20880;SDS011;10600;53.096;8.802;2023-05-07T04:14:41;24.13;;;15.30;;
20880;SDS011;10600;53.096;8.802;2023-05-07T04:15:42;25.10;;;16.27;;
20880;SDS011;10600;53.096;8.802;2023-05-07T04:16:42;22.50;;;15.43;;
20880;SDS011;10600;53.096;8.802;2023-05-07T04:17:43;25.08;;;15.65;;
20880;SDS011;10600;53.096;8.802;2023-05-07T04:18:44;22.85;;;15.77;;
20880;SDS011;10600;53.096;8.802;2023-05-07T04:19:44;24.00;;;14.38;;
20880;SDS011;10600;53.096;8.802;2023-05-07T04:20:45;22.85;;;14.13;;
20880;SDS011;10600;53.096;8.802;2023-05-07T04:21:46;22.48;;;14.60;;
20880;SDS011;10600;53.096;8.802;2023-05-07T04:22:46;22.42;;;14.35;;
20880;SDS011;10600;53.096;8.802;2023-05-07T04:23:47;20.05;;;13.65;;
20880;SDS011;10600;53.096;8.802;2023-05-07T04:24:48;23.15;;;14.43;;
20880;SDS011;10600;53.096;8.802;2023-05-07T04:25:49;20.63;;;14.20;;
20880;SDS011;10600;53.096;8.802;2023-05-07T04:26:50;20.75;;;14.23;;
20880;SDS011;10600;53.096;8.802;2023-05-07T04:27:55;23.05;;;15.20;;
20880;SDS011;10600;53.096;8.802;2023-05-07T04:28:55;21.77;;;14.30;;
20880;SDS011;10600;53.096;8.802;2023-05-07T04:29:57;21.33;;;14.85;;
20880;SDS011;10600;53.096;8.802;2023-05-07T04:30:58;22.15;;;14.90;;
20880;SDS011;10600;53.096;8.802;2023-05-07T04:31:58;25.50;;;16.55;;
20880;SDS011;10600;53.096;8.802;2023-05-07T04:32:59;22.58;;;15.15;;
20880;SDS011;10600;53.096;8.802;2023-05-07T04:34:00;22.17;;;14.98;;
20880;SDS011;10600;53.096;8.802;2023-05-07T04:35:01;32.20;;;20.50;;
20880;SDS011;10600;53.096;8.802;2023-05-07T04:36:02;22.50;;;14.25;;
20880;SDS011;10600;53.096;8.802;2023-05-07T04:37:03;21.35;;;14.48;;
20880;SDS011;10600;53.096;8.802;2023-05-07T04:38:04;22.70;;;14.65;;
20880;SDS011;10600;53.096;8.802;2023-05-07T04:39:05;22.30;;;14.60;;
20880;SDS011;10600;53.096;8.802;2023-05-07T04:40:06;23.55;;;14.38;;
20880;SDS011;10600;53.096;8.802;2023-05-07T04:41:08;22.75;;;14.32;;
20880;SDS011;10600;53.096;8.802;2023-05-07T04:42:09;22.88;;;14.82;;
20880;SDS011;10600;53.096;8.802;2023-05-07T04:43:14;23.70;;;17.17;;
20880;SDS011;10600;53.096;8.802;2023-05-07T04:44:16;23.67;;;15.95;;
20880;SDS011;10600;53.096;8.802;2023-05-07T04:45:16;23.45;;;15.77;;
20880;SDS011;10600;53.096;8.802;2023-05-07T04:46:17;29.40;;;20.00;;
20880;SDS011;10600;53.096;8.802;2023-05-07T04:47:18;22.70;;;14.38;;
20880;SDS011;10600;53.096;8.802;2023-05-07T04:48:18;23.65;;;15.38;;
20880;SDS011;10600;53.096;8.802;2023-05-07T04:49:20;21.60;;;14.73;;
20880;SDS011;10600;53.096;8.802;2023-05-07T04:50:21;23.45;;;16.33;;
20880;SDS011;10600;53.096;8.802;2023-05-07T04:51:23;21.23;;;14.68;;
20880;SDS011;10600;53.096;8.802;2023-05-07T04:52:24;27.08;;;16.25;;
20880;SDS011;10600;53.096;8.802;2023-05-07T04:53:24;20.95;;;14.98;;
20880;SDS011;10600;53.096;8.802;2023-05-07T04:54:25;23.83;;;15.68;;
20880;SDS011;10600;53.096;8.802;2023-05-07T04:55:26;20.83;;;13.77;;
20880;SDS011;10600;53.096;8.802;2023-05-07T04:56:27;22.13;;;13.93;;
20880;SDS011;10600;53.096;8.802;2023-05-07T04:57:29;24.00;;;15.15;;
20880;SDS011;10600;53.096;8.802;2023-05-07T04:58:30;23.38;;;15.07;;
20880;SDS011;10600;53.096;8.802;2023-05-07T04:59:32;21.92;;;15.07;;
20880;SDS011;10600;53.096;8.802;2023-05-07T05:00:33;21.85;;;14.55;;
20880;SDS011;10600;53.096;8.802;2023-05-07T05:01:33;20.17;;;14.13;;
20880;SDS011;10600;53.096;8.802;2023-05-07T05:02:34;20.08;;;13.57;;
20880;SDS011;10600;53.096;8.802;2023-05-07T05:03:35;24.70;;;14.70;;
20880;SDS011;10600;53.096;8.802;2023-05-07T05:04:36;22.90;;;14.50;;
20880;SDS011;10600;53.096;8.802;2023-05-07T05:05:37;22.27;;;14.13;;
20880;SDS011;10600;53.096;8.802;2023-05-07T05:06:38;19.95;;;13.23;;
20880;SDS011;10600;53.096;8.802;2023-05-07T05:07:38;21.00;;;13.63;;
20880;SDS011;10600;53.096;8.802;2023-05-07T05:08:39;21.90;;;14.18;;
20880;SDS011;10600;53.096;8.802;2023-05-07T05:09:40;19.95;;;13.88;;
20880;SDS011;10600;53.096;8.802;2023-05-07T05:10:40;20.88;;;13.68;;
20880;SDS011;10600;53.096;8.802;2023-05-07T05:11:42;19.25;;;13.15;;
20880;SDS011;10600;53.096;8.802;2023-05-07T05:12:43;20.33;;;12.95;;
20880;SDS011;10600;53.096;8.802;2023-05-07T05:13:44;21.58;;;14.27;;
20880;SDS011;10600;53.096;8.802;2023-05-07T05:14:44;19.83;;;13.57;;
20880;SDS011;10600;53.096;8.802;2023-05-07T05:15:45;21.05;;;12.70;;
20880;SDS011;10600;53.096;8.802;2023-05-07T05:16:46;18.27;;;13.48;;
20880;SDS011;10600;53.096;8.802;2023-05-07T05:17:46;22.25;;;14.05;;
20880;SDS011;10600;53.096;8.802;2023-05-07T05:18:47;19.90;;;13.95;;
20880;SDS011;10600;53.096;8.802;2023-05-07T05:19:48;18.13;;;12.95;;
20880;SDS011;10600;53.096;8.802;2023-05-07T05:20:48;18.30;;;13.40;;
20880;SDS011;10600;53.096;8.802;2023-05-07T05:21:49;19.90;;;13.82;;
20880;SDS011;10600;53.096;8.802;2023-05-07T05:22:50;19.25;;;13.90;;
20880;SDS011;10600;53.096;8.802;2023-05-07T05:23:50;20.10;;;13.02;;
20880;SDS011;10600;53.096;8.802;2023-05-07T05:24:51;23.15;;;14.13;;
20880;SDS011;10600;53.096;8.802;2023-05-07T05:25:56;21.33;;;14.63;;
20880;SDS011;10600;53.096;8.802;2023-05-07T05:27:00;19.45;;;12.50;;
20880;SDS011;10600;53.096;8.802;2023-05-07T05:28:02;19.42;;;12.55;;
20880;SDS011;10600;53.096;8.802;2023-05-07T05:29:03;15.77;;;12.23;;
20880;SDS011;10600;53.096;8.802;2023-05-07T05:30:04;18.77;;;13.70;;
20880;SDS011;10600;53.096;8.802;2023-05-07T05:31:05;19.33;;;12.77;;
20880;SDS011;10600;53.096;8.802;2023-05-07T05:32:06;18.23;;;13.77;;
20880;SDS011;10600;53.096;8.802;2023-05-07T05:33:06;17.73;;;13.02;;
20880;SDS011;10600;53.096;8.802;2023-05-07T05:34:07;19.20;;;13.82;;
20880;SDS011;10600;53.096;8.802;2023-05-07T05:35:08;16.48;;;12.40;;
20880;SDS011;10600;53.096;8.802;2023-05-07T05:36:09;19.42;;;12.57;;
20880;SDS011;10600;53.096;8.802;2023-05-07T05:37:10;17.17;;;12.30;;
20880;SDS011;10600;53.096;8.802;2023-05-07T05:38:11;17.77;;;12.13;;
20880;SDS011;10600;53.096;8.802;2023-05-07T05:39:11;19.25;;;13.07;;
20880;SDS011;10600;53.096;8.802;2023-05-07T05:40:12;17.65;;;12.85;;
20880;SDS011;10600;53.096;8.802;2023-05-07T05:41:13;18.98;;;13.30;;
20880;SDS011;10600;53.096;8.802;2023-05-07T05:42:14;18.45;;;13.32;;
20880;SDS011;10600;53.096;8.802;2023-05-07T05:43:14;17.85;;;12.77;;
20880;SDS011;10600;53.096;8.802;2023-05-07T05:44:15;18.92;;;13.15;;
20880;SDS011;10600;53.096;8.802;2023-05-07T05:45:15;18.52;;;13.20;;
20880;SDS011;10600;53.096;8.802;2023-05-07T05:46:16;18.23;;;12.48;;
20880;SDS011;10600;53.096;8.802;2023-05-07T05:47:17;19.50;;;12.82;;
20880;SDS011;10600;53.096;8.802;2023-05-07T05:48:17;18.65;;;13.00;;
20880;SDS011;10600;53.096;8.802;2023-05-07T05:49:19;17.17;;;11.85;;
20880;SDS011;10600;53.096;8.802;2023-05-07T05:50:19;15.65;;;11.38;;
20880;SDS011;10600;53.096;8.802;2023-05-07T05:51:21;15.73;;;11.13;;
20880;SDS011;10600;53.096;8.802;2023-05-07T05:52:21;15.20;;;11.55;;
20880;SDS011;10600;53.096;8.802;2023-05-07T05:53:23;16.05;;;11.38;;
20880;SDS011;10600;53.096;8.802;2023-05-07T05:54:24;19.35;;;12.18;;
20880;SDS011;10600;53.096;8.802;2023-05-07T05:55:25;17.27;;;12.25;;
20880;SDS011;10600;53.096;8.802;2023-05-07T05:56:25;17.38;;;11.55;;
20880;SDS011;10600;53.096;8.802;2023-05-07T05:57:26;17.83;;;12.25;;
20880;SDS011;10600;53.096;8.802;2023-05-07T05:58:27;14.70;;;11.00;;